sensor_id;sensor_type;location;lat;lon;timestamp;pressure;altitude;pressure_sealevel;temperature;humidity
50854;BME280;44154;45.506;-122.806;2023-04-05T00:01:52;101289.72;;;25.55;31.45
50854;BME280;44154;45.506;-122.806;2023-04-05T00:04:18;101286.75;;;25.56;31.33
50854;BME280;44154;45.506;-122.806;2023-04-05T00:06:48;101293.03;;;25.57;31.12
50854;BME280;44154;45.506;-122.806;2023-04-05T00:09:19;101280.28;;;25.45;31.13
50854;BME280;44154;45.506;-122.806;2023-04-05T00:11:46;101295.97;;;25.50;32.07
50854;BME280;44154;45.506;-122.806;2023-04-05T00:14:12;101300.69;;;25.72;32.22
50854;BME280;44154;45.506;-122.806;2023-04-05T00:16:38;101308.13;;;25.93;32.01
50854;BME280;44154;45.506;-122.806;2023-04-05T00:19:05;101305.88;;;26.07;31.51
50854;BME280;44154;45.506;-122.806;2023-04-05T00:21:31;101308.19;;;26.16;31.02
50854;BME280;44154;45.506;-122.806;2023-04-05T00:23:58;101295.25;;;26.11;31.26
50854;BME280;44154;45.506;-122.806;2023-04-05T00:26:24;101311.13;;;26.09;30.85
50854;BME280;44154;45.506;-122.806;2023-04-05T00:28:51;101314.44;;;25.94;31.73
50854;BME280;44154;45.506;-122.806;2023-04-05T00:31:17;101310.47;;;25.85;32.13
50854;BME280;44154;45.506;-122.806;2023-04-05T00:33:44;101318.38;;;25.81;32.29
50854;BME280;44154;45.506;-122.806;2023-04-05T00:36:12;101305.16;;;25.78;32.53
50854;BME280;44154;45.506;-122.806;2023-04-05T00:38:39;101308.16;;;25.76;32.40
50854;BME280;44154;45.506;-122.806;2023-04-05T00:41:06;101307.84;;;25.73;32.56
50854;BME280;44154;45.506;-122.806;2023-04-05T00:43:33;101307.25;;;25.71;32.28
50854;BME280;44154;45.506;-122.806;2023-04-05T00:46:00;101307.75;;;25.68;32.65
50854;BME280;44154;45.506;-122.806;2023-04-05T00:48:27;101313.75;;;25.65;32.59
50854;BME280;44154;45.506;-122.806;2023-04-05T00:50:54;101300.44;;;25.56;32.64
50854;BME280;44154;45.506;-122.806;2023-04-05T00:53:21;101304.19;;;25.50;32.79
50854;BME280;44154;45.506;-122.806;2023-04-05T00:55:48;101285.81;;;25.34;32.65
50854;BME280;44154;45.506;-122.806;2023-04-05T00:58:18;101293.47;;;25.32;31.91
50854;BME280;44154;45.506;-122.806;2023-04-05T01:00:57;101298.19;;;25.36;32.62
50854;BME280;44154;45.506;-122.806;2023-04-05T01:03:28;101300.78;;;25.60;32.31
50854;BME280;44154;45.506;-122.806;2023-04-05T01:06:20;101297.53;;;25.80;32.07
50854;BME280;44154;45.506;-122.806;2023-04-05T01:11:53;101290.88;;;25.76;30.89
50854;BME280;44154;45.506;-122.806;2023-04-05T01:14:21;101297.44;;;25.75;30.87
50854;BME280;44154;45.506;-122.806;2023-04-05T01:16:47;101292.97;;;25.69;31.20
50854;BME280;44154;45.506;-122.806;2023-04-05T01:19:27;101293.38;;;25.60;31.65
50854;BME280;44154;45.506;-122.806;2023-04-05T01:25:01;101284.91;;;25.45;31.60
50854;BME280;44154;45.506;-122.806;2023-04-05T01:30:31;101278.31;;;25.29;31.70
50854;BME280;44154;45.506;-122.806;2023-04-05T01:33:07;101280.94;;;25.36;31.98
50854;BME280;44154;45.506;-122.806;2023-04-05T01:35:56;101275.72;;;25.51;32.04
50854;BME280;44154;45.506;-122.806;2023-04-05T01:38:26;101279.13;;;25.58;31.54
50854;BME280;44154;45.506;-122.806;2023-04-05T01:40:53;101290.91;;;25.59;31.58
50854;BME280;44154;45.506;-122.806;2023-04-05T01:43:19;101280.69;;;25.54;31.59
50854;BME280;44154;45.506;-122.806;2023-04-05T01:45:45;101283.94;;;25.51;31.54
50854;BME280;44154;45.506;-122.806;2023-04-05T01:48:12;101286.91;;;25.50;31.80
50854;BME280;44154;45.506;-122.806;2023-04-05T01:50:39;101294.53;;;25.48;31.97
50854;BME280;44154;45.506;-122.806;2023-04-05T01:53:06;101288.75;;;25.44;31.93
50854;BME280;44154;45.506;-122.806;2023-04-05T01:55:33;101298.53;;;25.40;31.97
50854;BME280;44154;45.506;-122.806;2023-04-05T01:57:59;101297.13;;;25.37;31.77
50854;BME280;44154;45.506;-122.806;2023-04-05T02:00:25;101295.97;;;25.33;31.95
50854;BME280;44154;45.506;-122.806;2023-04-05T02:02:52;101298.13;;;25.31;31.87
50854;BME280;44154;45.506;-122.806;2023-04-05T02:05:18;101300.50;;;25.27;31.87
50854;BME280;44154;45.506;-122.806;2023-04-05T02:07:44;101297.69;;;25.22;32.18
50854;BME280;44154;45.506;-122.806;2023-04-05T02:10:11;101299.81;;;25.20;32.12
50854;BME280;44154;45.506;-122.806;2023-04-05T02:12:37;101302.00;;;25.18;31.85
50854;BME280;44154;45.506;-122.806;2023-04-05T02:15:03;101300.22;;;25.12;32.40
50854;BME280;44154;45.506;-122.806;2023-04-05T02:17:29;101296.16;;;25.15;32.18
50854;BME280;44154;45.506;-122.806;2023-04-05T02:19:59;101306.03;;;25.16;32.42
50854;BME280;44154;45.506;-122.806;2023-04-05T02:22:30;101306.78;;;25.11;32.73
50854;BME280;44154;45.506;-122.806;2023-04-05T02:24:56;101310.25;;;25.06;32.83
50854;BME280;44154;45.506;-122.806;2023-04-05T02:27:23;101307.78;;;25.22;33.06
50854;BME280;44154;45.506;-122.806;2023-04-05T02:29:49;101315.16;;;25.50;32.88
50854;BME280;44154;45.506;-122.806;2023-04-05T02:32:16;101312.31;;;25.79;32.36
50854;BME280;44154;45.506;-122.806;2023-04-05T02:34:42;101312.78;;;25.93;32.05
50854;BME280;44154;45.506;-122.806;2023-04-05T02:37:08;101311.44;;;25.95;32.12
50854;BME280;44154;45.506;-122.806;2023-04-05T02:39:34;101309.16;;;25.87;32.33
50854;BME280;44154;45.506;-122.806;2023-04-05T02:42:00;101297.28;;;25.65;32.61
50854;BME280;44154;45.506;-122.806;2023-04-05T02:44:27;101315.97;;;25.68;32.87
50854;BME280;44154;45.506;-122.806;2023-04-05T02:46:53;101316.38;;;25.59;33.06
50854;BME280;44154;45.506;-122.806;2023-04-05T02:49:19;101296.88;;;25.39;33.10
50854;BME280;44154;45.506;-122.806;2023-04-05T02:51:45;101316.38;;;25.42;33.03
50854;BME280;44154;45.506;-122.806;2023-04-05T02:54:11;101312.81;;;25.42;33.28
50854;BME280;44154;45.506;-122.806;2023-04-05T02:56:38;101322.03;;;25.36;33.23
50854;BME280;44154;45.506;-122.806;2023-04-05T02:59:04;101322.41;;;25.27;33.35
50854;BME280;44154;45.506;-122.806;2023-04-05T03:01:30;101323.22;;;25.28;33.57
50854;BME280;44154;45.506;-122.806;2023-04-05T03:03:57;101325.91;;;25.23;33.70
50854;BME280;44154;45.506;-122.806;2023-04-05T03:06:23;101328.38;;;25.24;33.64
50854;BME280;44154;45.506;-122.806;2023-04-05T03:08:49;101314.13;;;25.39;33.38
50854;BME280;44154;45.506;-122.806;2023-04-05T03:11:15;101333.59;;;25.55;33.15
50854;BME280;44154;45.506;-122.806;2023-04-05T03:13:41;101333.25;;;25.51;33.17
50854;BME280;44154;45.506;-122.806;2023-04-05T03:16:08;101333.72;;;25.48;33.03
50854;BME280;44154;45.506;-122.806;2023-04-05T03:18:34;101335.56;;;25.42;33.00
50854;BME280;44154;45.506;-122.806;2023-04-05T03:21:00;101339.03;;;25.38;33.18
50854;BME280;44154;45.506;-122.806;2023-04-05T03:23:28;101337.63;;;25.35;33.19
50854;BME280;44154;45.506;-122.806;2023-04-05T03:26:01;101340.88;;;25.32;33.26
50854;BME280;44154;45.506;-122.806;2023-04-05T03:28:29;101335.13;;;25.34;33.00
50854;BME280;44154;45.506;-122.806;2023-04-05T03:30:57;101347.66;;;25.30;32.99
50854;BME280;44154;45.506;-122.806;2023-04-05T03:33:23;101328.28;;;25.19;33.51
50854;BME280;44154;45.506;-122.806;2023-04-05T03:35:50;101336.91;;;25.11;33.76
50854;BME280;44154;45.506;-122.806;2023-04-05T03:38:16;101331.94;;;25.08;34.25
50854;BME280;44154;45.506;-122.806;2023-04-05T03:40:42;101335.53;;;25.25;33.49
50854;BME280;44154;45.506;-122.806;2023-04-05T03:43:09;101354.53;;;25.44;33.40
50854;BME280;44154;45.506;-122.806;2023-04-05T03:45:35;101366.63;;;25.48;32.94
50854;BME280;44154;45.506;-122.806;2023-04-05T03:48:01;101351.19;;;25.42;33.11
50854;BME280;44154;45.506;-122.806;2023-04-05T03:50:27;101368.78;;;25.46;32.78
50854;BME280;44154;45.506;-122.806;2023-04-05T03:52:54;101362.63;;;25.39;32.66
50854;BME280;44154;45.506;-122.806;2023-04-05T03:55:20;101367.13;;;25.45;32.82
50854;BME280;44154;45.506;-122.806;2023-04-05T03:57:46;101379.41;;;25.42;32.55
50854;BME280;44154;45.506;-122.806;2023-04-05T04:00:13;101376.44;;;25.44;32.70
50854;BME280;44154;45.506;-122.806;2023-04-05T04:02:48;101378.25;;;25.38;32.73
50854;BME280;44154;45.506;-122.806;2023-04-05T04:05:15;101383.13;;;25.36;33.50
50854;BME280;44154;45.506;-122.806;2023-04-05T04:07:43;101379.69;;;25.29;33.89
50854;BME280;44154;45.506;-122.806;2023-04-05T04:10:11;101382.31;;;25.36;33.60
50854;BME280;44154;45.506;-122.806;2023-04-05T04:12:38;101382.59;;;25.51;33.21
50854;BME280;44154;45.506;-122.806;2023-04-05T04:15:04;101394.31;;;25.63;32.57
50854;BME280;44154;45.506;-122.806;2023-04-05T04:17:32;101390.75;;;25.63;32.50
50854;BME280;44154;45.506;-122.806;2023-04-05T04:19:59;101387.81;;;25.53;32.59
50854;BME280;44154;45.506;-122.806;2023-04-05T04:22:26;101399.94;;;25.57;32.48
50854;BME280;44154;45.506;-122.806;2023-04-05T04:24:58;101400.44;;;25.54;32.67
50854;BME280;44154;45.506;-122.806;2023-04-05T04:27:30;101405.34;;;25.52;32.33
50854;BME280;44154;45.506;-122.806;2023-04-05T04:29:56;101408.34;;;25.50;32.82
50854;BME280;44154;45.506;-122.806;2023-04-05T04:32:29;101407.97;;;25.47;32.64
50854;BME280;44154;45.506;-122.806;2023-04-05T04:35:14;101413.22;;;25.48;32.47
50854;BME280;44154;45.506;-122.806;2023-04-05T04:37:51;101403.50;;;25.40;32.86
50854;BME280;44154;45.506;-122.806;2023-04-05T04:40:17;101419.69;;;25.42;33.53
50854;BME280;44154;45.506;-122.806;2023-04-05T04:42:44;101415.28;;;25.41;33.71
50854;BME280;44154;45.506;-122.806;2023-04-05T04:45:17;101415.47;;;25.51;33.37
50854;BME280;44154;45.506;-122.806;2023-04-05T04:47:46;101417.41;;;25.68;32.53
50854;BME280;44154;45.506;-122.806;2023-04-05T04:50:13;101414.66;;;25.68;32.51
50854;BME280;44154;45.506;-122.806;2023-04-05T04:52:41;101431.44;;;25.71;32.10
50854;BME280;44154;45.506;-122.806;2023-04-05T04:55:08;101424.22;;;25.65;32.52
50854;BME280;44154;45.506;-122.806;2023-04-05T04:57:34;101421.16;;;25.61;32.41
50854;BME280;44154;45.506;-122.806;2023-04-05T05:00:00;101422.97;;;25.56;32.22
50854;BME280;44154;45.506;-122.806;2023-04-05T05:02:28;101420.97;;;25.51;32.25
50854;BME280;44154;45.506;-122.806;2023-04-05T05:04:54;101423.59;;;25.46;32.54
50854;BME280;44154;45.506;-122.806;2023-04-05T05:07:21;101413.03;;;25.38;32.60
50854;BME280;44154;45.506;-122.806;2023-04-05T05:09:47;101417.94;;;25.36;32.66
50854;BME280;44154;45.506;-122.806;2023-04-05T05:12:17;101410.69;;;25.30;33.48
50854;BME280;44154;45.506;-122.806;2023-04-05T05:14:43;101414.38;;;25.23;34.01
50854;BME280;44154;45.506;-122.806;2023-04-05T05:17:09;101363.03;;;25.02;33.61
50854;BME280;44154;45.506;-122.806;2023-04-05T05:19:35;101413.81;;;25.50;33.01
50854;BME280;44154;45.506;-122.806;2023-04-05T05:22:02;101410.00;;;25.51;32.75
50854;BME280;44154;45.506;-122.806;2023-04-05T05:24:28;101418.56;;;25.55;32.74
50854;BME280;44154;45.506;-122.806;2023-04-05T05:26:54;101417.97;;;25.53;32.52
50854;BME280;44154;45.506;-122.806;2023-04-05T05:29:20;101416.69;;;25.43;32.75
50854;BME280;44154;45.506;-122.806;2023-04-05T05:31:46;101420.94;;;25.34;32.76
50854;BME280;44154;45.506;-122.806;2023-04-05T05:34:12;101425.56;;;25.34;32.75
50854;BME280;44154;45.506;-122.806;2023-04-05T05:36:38;101425.56;;;25.34;32.74
50854;BME280;44154;45.506;-122.806;2023-04-05T05:39:05;101423.91;;;25.33;32.94
50854;BME280;44154;45.506;-122.806;2023-04-05T05:41:32;101424.97;;;25.32;33.04
50854;BME280;44154;45.506;-122.806;2023-04-05T05:43:58;101434.41;;;25.24;33.38
50854;BME280;44154;45.506;-122.806;2023-04-05T05:46:25;101424.66;;;25.16;33.75
50854;BME280;44154;45.506;-122.806;2023-04-05T05:48:51;101424.38;;;25.30;33.44
50854;BME280;44154;45.506;-122.806;2023-04-05T05:51:17;101427.91;;;25.42;33.06
50854;BME280;44154;45.506;-122.806;2023-04-05T05:53:44;101433.75;;;25.45;32.67
50854;BME280;44154;45.506;-122.806;2023-04-05T05:56:10;101429.34;;;25.44;32.49
50854;BME280;44154;45.506;-122.806;2023-04-05T05:58:37;101420.84;;;25.46;32.64
50854;BME280;44154;45.506;-122.806;2023-04-05T06:01:05;101425.16;;;25.42;32.55
50854;BME280;44154;45.506;-122.806;2023-04-05T06:03:32;101430.91;;;25.40;32.73
50854;BME280;44154;45.506;-122.806;2023-04-05T06:05:58;101428.91;;;25.36;32.58
50854;BME280;44154;45.506;-122.806;2023-04-05T06:08:27;101400.94;;;25.22;32.26
50854;BME280;44154;45.506;-122.806;2023-04-05T06:10:53;101425.81;;;25.32;32.68
50854;BME280;44154;45.506;-122.806;2023-04-05T06:13:20;101414.28;;;25.18;32.49
50854;BME280;44154;45.506;-122.806;2023-04-05T06:15:46;101425.34;;;25.23;32.46
50854;BME280;44154;45.506;-122.806;2023-04-05T06:18:13;101411.31;;;25.20;32.54
50854;BME280;44154;45.506;-122.806;2023-04-05T06:20:39;101423.69;;;25.22;32.38
50854;BME280;44154;45.506;-122.806;2023-04-05T06:23:07;101428.47;;;25.15;32.47
50854;BME280;44154;45.506;-122.806;2023-04-05T06:25:33;101421.81;;;25.11;32.56
50854;BME280;44154;45.506;-122.806;2023-04-05T06:28:04;101410.63;;;25.01;32.60
50854;BME280;44154;45.506;-122.806;2023-04-05T06:30:31;101401.66;;;24.88;33.10
50854;BME280;44154;45.506;-122.806;2023-04-05T06:32:58;101427.22;;;24.94;33.05
50854;BME280;44154;45.506;-122.806;2023-04-05T06:35:25;101420.91;;;24.93;33.48
50854;BME280;44154;45.506;-122.806;2023-04-05T06:37:52;101420.31;;;24.91;33.33
50854;BME280;44154;45.506;-122.806;2023-04-05T06:40:18;101425.31;;;24.94;33.55
50854;BME280;44154;45.506;-122.806;2023-04-05T06:42:45;101432.56;;;25.01;32.81
50854;BME280;44154;45.506;-122.806;2023-04-05T06:45:11;101427.31;;;24.99;33.07
50854;BME280;44154;45.506;-122.806;2023-04-05T06:47:38;101433.16;;;25.03;34.35
50854;BME280;44154;45.506;-122.806;2023-04-05T06:50:07;101432.56;;;25.01;34.56
50854;BME280;44154;45.506;-122.806;2023-04-05T06:52:34;101435.03;;;25.14;33.81
50854;BME280;44154;45.506;-122.806;2023-04-05T06:55:00;101441.09;;;25.16;33.22
50854;BME280;44154;45.506;-122.806;2023-04-05T06:57:27;101429.19;;;25.10;32.83
50854;BME280;44154;45.506;-122.806;2023-04-05T06:59:53;101447.75;;;25.20;32.73
50854;BME280;44154;45.506;-122.806;2023-04-05T07:02:20;101429.56;;;25.14;32.72
50854;BME280;44154;45.506;-122.806;2023-04-05T07:04:46;101442.63;;;25.12;32.97
50854;BME280;44154;45.506;-122.806;2023-04-05T07:07:13;101440.38;;;25.09;33.35
50854;BME280;44154;45.506;-122.806;2023-04-05T07:09:39;101439.81;;;25.07;33.84
50854;BME280;44154;45.506;-122.806;2023-04-05T07:12:07;101431.72;;;25.00;34.39
50854;BME280;44154;45.506;-122.806;2023-04-05T07:14:35;101435.06;;;25.02;34.37
50854;BME280;44154;45.506;-122.806;2023-04-05T07:17:03;101437.34;;;24.93;34.93
50854;BME280;44154;45.506;-122.806;2023-04-05T07:19:30;101442.47;;;24.90;35.06
50854;BME280;44154;45.506;-122.806;2023-04-05T07:21:58;101445.69;;;24.87;34.75
50854;BME280;44154;45.506;-122.806;2023-04-05T07:24:24;101450.81;;;24.83;34.65
50854;BME280;44154;45.506;-122.806;2023-04-05T07:26:51;101444.75;;;24.81;35.15
50854;BME280;44154;45.506;-122.806;2023-04-05T07:29:17;101447.97;;;24.78;36.26
50854;BME280;44154;45.506;-122.806;2023-04-05T07:31:43;101458.09;;;24.77;36.58
50854;BME280;44154;45.506;-122.806;2023-04-05T07:34:09;101429.06;;;24.65;36.12
50854;BME280;44154;45.506;-122.806;2023-04-05T07:36:35;101465.19;;;24.90;35.51
50854;BME280;44154;45.506;-122.806;2023-04-05T07:39:01;101461.97;;;24.93;35.21
50854;BME280;44154;45.506;-122.806;2023-04-05T07:41:28;101459.72;;;24.90;35.46
50854;BME280;44154;45.506;-122.806;2023-04-05T07:44:00;101465.19;;;24.90;35.35
50854;BME280;44154;45.506;-122.806;2023-04-05T07:46:26;101463.44;;;24.84;35.31
50854;BME280;44154;45.506;-122.806;2023-04-05T07:48:53;101470.59;;;24.85;35.37
50854;BME280;44154;45.506;-122.806;2023-04-05T07:51:19;101462.25;;;24.80;35.45
50854;BME280;44154;45.506;-122.806;2023-04-05T07:53:45;101478.09;;;24.78;35.09
50854;BME280;44154;45.506;-122.806;2023-04-05T07:56:12;101471.44;;;24.74;35.15
50854;BME280;44154;45.506;-122.806;2023-04-05T07:58:41;101473.81;;;24.70;35.29
50854;BME280;44154;45.506;-122.806;2023-04-05T08:01:09;101466.56;;;24.64;36.46
50854;BME280;44154;45.506;-122.806;2023-04-05T08:03:36;101467.13;;;24.54;36.86
50854;BME280;44154;45.506;-122.806;2023-04-05T08:06:14;101469.53;;;24.63;36.20
50854;BME280;44154;45.506;-122.806;2023-04-05T08:08:46;101474.25;;;24.79;35.49
50854;BME280;44154;45.506;-122.806;2023-04-05T08:11:13;101460.72;;;24.72;35.22
50854;BME280;44154;45.506;-122.806;2023-04-05T08:13:39;101464.91;;;24.75;35.21
50854;BME280;44154;45.506;-122.806;2023-04-05T08:16:10;101466.41;;;24.83;35.33
50854;BME280;44154;45.506;-122.806;2023-04-05T08:18:37;101469.03;;;24.77;35.18
50854;BME280;44154;45.506;-122.806;2023-04-05T08:21:03;101478.22;;;24.71;35.42
50854;BME280;44154;45.506;-122.806;2023-04-05T08:23:29;101475.97;;;24.68;35.64
50854;BME280;44154;45.506;-122.806;2023-04-05T08:25:56;101455.13;;;24.55;35.37
50854;BME280;44154;45.506;-122.806;2023-04-05T08:28:23;101469.53;;;24.63;35.49
50854;BME280;44154;45.506;-122.806;2023-04-05T08:30:57;101485.13;;;24.62;35.63
50854;BME280;44154;45.506;-122.806;2023-04-05T08:33:24;101479.25;;;24.58;36.62
50854;BME280;44154;45.506;-122.806;2023-04-05T08:35:56;101474.84;;;24.57;36.62
50854;BME280;44154;45.506;-122.806;2023-04-05T08:38:22;101478.81;;;24.62;36.12
50854;BME280;44154;45.506;-122.806;2023-04-05T08:40:48;101474.75;;;24.76;35.60
50854;BME280;44154;45.506;-122.806;2023-04-05T08:45:53;101468.19;;;24.89;35.15
50854;BME280;44154;45.506;-122.806;2023-04-05T08:48:21;101474.16;;;24.86;35.10
50854;BME280;44154;45.506;-122.806;2023-04-05T08:50:52;101475.34;;;24.78;35.20
50854;BME280;44154;45.506;-122.806;2023-04-05T08:53:19;101465.84;;;24.69;35.21
50854;BME280;44154;45.506;-122.806;2023-04-05T08:55:49;101484.50;;;24.72;35.29
50854;BME280;44154;45.506;-122.806;2023-04-05T08:58:19;101479.19;;;24.65;35.39
50854;BME280;44154;45.506;-122.806;2023-04-05T09:00:46;101472.84;;;24.65;35.25
50854;BME280;44154;45.506;-122.806;2023-04-05T09:03:15;101466.31;;;24.54;35.25
50854;BME280;44154;45.506;-122.806;2023-04-05T09:05:47;101463.44;;;24.49;36.26
50854;BME280;44154;45.506;-122.806;2023-04-05T09:08:14;101477.34;;;24.47;36.21
50854;BME280;44154;45.506;-122.806;2023-04-05T09:10:41;101480.22;;;24.52;36.28
50854;BME280;44154;45.506;-122.806;2023-04-05T09:13:07;101469.66;;;24.68;35.46
50854;BME280;44154;45.506;-122.806;2023-04-05T09:15:37;101460.13;;;24.70;35.62
50854;BME280;44154;45.506;-122.806;2023-04-05T09:18:03;101472.00;;;24.88;35.25
50854;BME280;44154;45.506;-122.806;2023-04-05T09:20:30;101465.09;;;24.85;34.91
50854;BME280;44154;45.506;-122.806;2023-04-05T09:22:56;101459.19;;;24.76;35.17
50854;BME280;44154;45.506;-122.806;2023-04-05T09:25:38;101462.59;;;24.72;35.08
50854;BME280;44154;45.506;-122.806;2023-04-05T09:28:08;101454.88;;;24.69;35.25
50854;BME280;44154;45.506;-122.806;2023-04-05T09:30:35;101457.28;;;24.65;35.20
50854;BME280;44154;45.506;-122.806;2023-04-05T09:33:06;101456.53;;;24.58;35.44
50854;BME280;44154;45.506;-122.806;2023-04-05T09:35:35;101456.66;;;24.51;35.33
50854;BME280;44154;45.506;-122.806;2023-04-05T09:38:03;101460.47;;;24.50;36.05
50854;BME280;44154;45.506;-122.806;2023-04-05T09:40:46;101460.84;;;24.42;36.50
50854;BME280;44154;45.506;-122.806;2023-04-05T09:43:39;101460.94;;;24.47;36.16
50854;BME280;44154;45.506;-122.806;2023-04-05T09:46:06;101459.78;;;24.67;35.46
50854;BME280;44154;45.506;-122.806;2023-04-05T09:48:48;101447.75;;;24.80;35.24
50854;BME280;44154;45.506;-122.806;2023-04-05T09:51:15;101444.28;;;24.84;34.95
50854;BME280;44154;45.506;-122.806;2023-04-05T09:54:08;101452.84;;;24.76;34.97
50854;BME280;44154;45.506;-122.806;2023-04-05T09:56:39;101455.03;;;24.62;34.99
50854;BME280;44154;45.506;-122.806;2023-04-05T10:01:34;101463.47;;;24.61;35.09
50854;BME280;44154;45.506;-122.806;2023-04-05T10:04:00;101456.91;;;24.62;34.99
50854;BME280;44154;45.506;-122.806;2023-04-05T10:06:40;101460.59;;;24.55;35.24
50854;BME280;44154;45.506;-122.806;2023-04-05T10:09:08;101464.53;;;24.48;35.81
50854;BME280;44154;45.506;-122.806;2023-04-05T10:11:37;101448.81;;;24.31;36.04
50854;BME280;44154;45.506;-122.806;2023-04-05T10:14:05;101460.84;;;24.42;36.09
50854;BME280;44154;45.506;-122.806;2023-04-05T10:16:37;101457.84;;;24.55;35.53
50854;BME280;44154;45.506;-122.806;2023-04-05T10:19:05;101460.13;;;24.70;35.31
50854;BME280;44154;45.506;-122.806;2023-04-05T10:21:40;101455.94;;;24.80;34.75
50854;BME280;44154;45.506;-122.806;2023-04-05T10:24:22;101465.47;;;24.77;34.65
50854;BME280;44154;45.506;-122.806;2023-04-05T10:27:16;101457.84;;;24.67;34.89
50854;BME280;44154;45.506;-122.806;2023-04-05T10:29:53;101460.09;;;24.58;34.73
50854;BME280;44154;45.506;-122.806;2023-04-05T10:40:34;101464.75;;;24.46;35.57
50854;BME280;44154;45.506;-122.806;2023-04-05T10:43:03;101464.75;;;24.46;35.69
50854;BME280;44154;45.506;-122.806;2023-04-05T10:45:30;101462.28;;;24.45;35.94
50854;BME280;44154;45.506;-122.806;2023-04-05T10:48:13;101456.41;;;24.53;35.26
50854;BME280;44154;45.506;-122.806;2023-04-05T10:50:41;101447.53;;;24.69;34.82
50854;BME280;44154;45.506;-122.806;2023-04-05T10:53:09;101458.09;;;24.77;34.63
50854;BME280;44154;45.506;-122.806;2023-04-05T10:55:37;101470.47;;;24.80;34.66
50854;BME280;44154;45.506;-122.806;2023-04-05T10:58:04;101469.41;;;24.69;34.60
50854;BME280;44154;45.506;-122.806;2023-04-05T11:00:31;101455.34;;;24.54;34.64
50854;BME280;44154;45.506;-122.806;2023-04-05T11:02:58;101468.47;;;24.52;34.82
50854;BME280;44154;45.506;-122.806;2023-04-05T11:05:34;101465.00;;;24.45;34.91
50854;BME280;44154;45.506;-122.806;2023-04-05T11:08:06;101467.38;;;24.41;35.00
50854;BME280;44154;45.506;-122.806;2023-04-05T11:10:36;101466.56;;;24.40;34.82
50854;BME280;44154;45.506;-122.806;2023-04-05T11:13:05;101469.03;;;24.42;35.64
50854;BME280;44154;45.506;-122.806;2023-04-05T11:15:32;101470.59;;;24.38;35.64
50854;BME280;44154;45.506;-122.806;2023-04-05T11:23:20;101457.25;;;24.77;34.58
50854;BME280;44154;45.506;-122.806;2023-04-05T11:26:05;101465.59;;;24.82;34.52
50854;BME280;44154;45.506;-122.806;2023-04-05T11:28:36;101466.53;;;24.76;34.50
50854;BME280;44154;45.506;-122.806;2023-04-05T11:31:13;101467.13;;;24.54;34.57
50854;BME280;44154;45.506;-122.806;2023-04-05T11:36:10;101468.66;;;24.50;34.70
50854;BME280;44154;45.506;-122.806;2023-04-05T11:38:38;101470.25;;;24.46;34.70
50854;BME280;44154;45.506;-122.806;2023-04-05T11:41:15;101465.22;;;24.43;34.77
50854;BME280;44154;45.506;-122.806;2023-04-05T11:43:50;101457.16;;;24.36;35.25
50854;BME280;44154;45.506;-122.806;2023-04-05T11:46:17;101472.84;;;24.41;35.38
50854;BME280;44154;45.506;-122.806;2023-04-05T11:48:49;101475.81;;;24.39;35.36
50854;BME280;44154;45.506;-122.806;2023-04-05T11:51:17;101464.28;;;24.49;34.83
50854;BME280;44154;45.506;-122.806;2023-04-05T11:53:46;101460.03;;;24.65;34.55
50854;BME280;44154;45.506;-122.806;2023-04-05T11:56:12;101473.19;;;24.80;34.27
50854;BME280;44154;45.506;-122.806;2023-04-05T11:58:41;101472.38;;;24.80;34.28
50854;BME280;44154;45.506;-122.806;2023-04-05T12:01:08;101454.88;;;24.57;34.23
50854;BME280;44154;45.506;-122.806;2023-04-05T12:03:35;101473.44;;;24.55;34.38
50854;BME280;44154;45.506;-122.806;2023-04-05T12:06:03;101462.72;;;24.41;34.29
50854;BME280;44154;45.506;-122.806;2023-04-05T12:08:45;101466.78;;;24.39;34.66
50854;BME280;44154;45.506;-122.806;2023-04-05T12:11:25;101461.91;;;24.41;34.52
50854;BME280;44154;45.506;-122.806;2023-04-05T12:13:59;101448.47;;;24.28;34.90
50854;BME280;44154;45.506;-122.806;2023-04-05T12:16:26;101459.88;;;24.36;35.18
50854;BME280;44154;45.506;-122.806;2023-04-05T12:18:54;101449.66;;;24.32;35.42
50854;BME280;44154;45.506;-122.806;2023-04-05T12:21:20;101456.91;;;24.50;34.88
50854;BME280;44154;45.506;-122.806;2023-04-05T12:23:47;101464.75;;;24.70;34.38
50854;BME280;44154;45.506;-122.806;2023-04-05T12:26:13;101454.19;;;24.73;34.20
50854;BME280;44154;45.506;-122.806;2023-04-05T12:28:53;101430.84;;;24.71;33.85
50854;BME280;44154;45.506;-122.806;2023-04-05T12:31:39;101446.66;;;24.69;34.04
50854;BME280;44154;45.506;-122.806;2023-04-05T12:34:06;101446.81;;;24.62;34.67
50854;BME280;44154;45.506;-122.806;2023-04-05T12:36:32;101451.78;;;24.53;34.78
50854;BME280;44154;45.506;-122.806;2023-04-05T12:38:59;101451.06;;;24.58;34.79
50854;BME280;44154;45.506;-122.806;2023-04-05T12:41:29;101436.19;;;24.54;34.85
50854;BME280;44154;45.506;-122.806;2023-04-05T12:43:56;101444.28;;;24.84;34.33
50854;BME280;44154;45.506;-122.806;2023-04-05T12:47:01;101453.41;;;25.02;33.73
50854;BME280;44154;45.506;-122.806;2023-04-05T12:49:28;101440.38;;;25.09;33.62
50854;BME280;44154;45.506;-122.806;2023-04-05T12:51:59;101439.63;;;24.97;33.55
50854;BME280;44154;45.506;-122.806;2023-04-05T12:54:29;101443.50;;;25.01;33.77
50854;BME280;44154;45.506;-122.806;2023-04-05T12:57:01;101438.31;;;24.87;34.08
50854;BME280;44154;45.506;-122.806;2023-04-05T12:59:28;101442.59;;;24.83;33.92